AirNav   Pilot Hours Calculator
 
 1604 users online  

W94 Camp Peary Landing Strip Airport
Williamsburg, Virginia, USA

GOING TO WILLIAMSBURG?


FAA INFORMATION EFFECTIVE 17 JUNE 2021

Location

FAA Identifier: W94
Lat/Long: 37-18-46.0594N 076-38-17.5821W
37-18.767657N 076-38.293035W
37.3127943,-76.6382172
(estimated)
Elevation: 40.8 ft. / 12 m (estimated)
Variation: 11W (2010)
From city: 3 miles NE of WILLIAMSBURG, VA
Time zone: UTC -4 (UTC -5 during Standard Time)
Zip code: 23188

Airport Operations

Airport use: Private use, THIS FLD IS DOD RESTRICTED.
Activation date: 07/1958
Control tower: no
ARTCC: WASHINGTON CENTER
FSS: LEESBURG FLIGHT SERVICE STATION
NOTAMs facility: DCA (NOTAM-D service available)
Attendance: MON-FRI 0800-1630
Wind indicator: yes
Segmented circle: no
Lights: SS-SR

Airport Communications

NORFOLK APPROACH: 125.7
NORFOLK DEPARTURE: 125.7
WX AWOS-3 at JGG (6 nm SW): 120.625 (757-220-8810)
WX ASOS at PHF (13 nm SE): PHONE 757-874-3682
WX AWOS-3 at FYJ (14 nm NW): 132.825 (804-785-2307)
WX AWOS-3 at W75 (20 nm NE): 118.45 (804-758-8592)
  • APCH/DEP SVC PRVDD BY ORF APCH ON 125.7/335.625.

Nearby radio navigation aids

VOR radial/distance  VOR name  Freq  Var
HCMr164/8.9HARCUM VORTAC108.8007W
HPWr098/22.8HOPEWELL VORTAC112.0006W
CCVr276/30.6CAPE CHARLES VORTAC112.2010W
ORFr327/32.8NORFOLK VORTAC116.9007W
RICr118/34.4RICHMOND VORTAC114.1009W

 
NDB name  Hdg/Dist  Freq  Var  ID
WAKEFIELD052/26.327411WAKQ .- -.- --.-

Airport Services

Airframe service: NONE
Powerplant service: NONE

Runway Information

Runway 5/23

Dimensions: 5018 x 151 ft. / 1529 x 46 m
FLD CLSD TO ALL CIV & MIL ACFT WO PRIOR APVL OF BASE COMDR.
Surface: asphalt
Runway edge lights: low intensity
RUNWAY 5  RUNWAY 23
Latitude: 37-18.448248N37-19.087063N
Longitude: 076-38.621737W076-37.964333W
Elevation: 40.8 ft.31.3 ft.
Traffic pattern: leftleft
Visual slope indicator: 4-light PAPI on left4-light PAPI on left
Touchdown point: yes, no lightsyes, no lights

Airport Ownership and Management from official FAA records

Ownership: U.S. Army
Owner: US ARMY AERONAUTICAL SVCS AGENCY
FT BELVOIR, VA 22060
Manager: DAVID J CROMLEY
AFETA-CAMP PEARY
WILLIAMSBURG, VA 23185
Phone 804-229-2121
COLONEL INFANTRY.

Additional Remarks

CAUTION: FLD RSTD, PPR BY WRITTEN REQ TO BASE COMDR, ATTN: AIR OPS. EXC WHEN OPR UNDER PRIOR PERMS AUTH, PILOTS SHOULD MAINT AT LEAST 3000 FT ABV THE ARPT ELEV WITHIN 5 NM.
FOR CD CTC NORFOLK APCH AT 757-464-0757.

Instrument Procedures

NOTE: All procedures below are presented as PDF files. If you need a reader for these files, you should download the free Adobe Reader.

NOT FOR NAVIGATION. Please procure official charts for flight.
FAA instrument procedures published for use from 17 June 2021 at 0901Z to 15 July 2021 at 0900Z.

 
IAPs - Instrument Approach Procedures
RNAV (GPS) RWY 05   download (186KB)
RNAV (GPS) RWY 23   download (119KB)
VOR-A   download (112KB)
NOTE: Special Take-Off Minimums/Departure Procedures apply   download (140KB)

Other nearby airports with instrument procedures:

KJGG - Williamsburg-Jamestown Airport (6 nm SW)
KFAF - Felker Army Airfield (11 nm S)
KPHF - Newport News/Williamsburg International Airport (13 nm SE)
KFYJ - Middle Peninsula Regional Airport (14 nm NW)
KLFI - Langley Air Force Base (19 nm SE)
W75 - Hummel Field Airport (20 nm NE)
 
Loc | Ops | Rwys | IFR | FBO | Links
Com | Nav | Svcs | Stats | Notes
Area around W94 (Camp Peary Landing Strip Airport)
 
Road maps at: MapQuest Bing Google
 
Aerial photo
WARNING: Photo may not be current or correct
Aerial photo of W94 (Camp Peary Landing Strip Airport)
Photo by Glenn Woodell, of NASA Langley Research Center
Photo taken 10-Apr-2014
looking south.

Do you have a better or more recent aerial photo of Camp Peary Landing Strip Airport that you would like to share? If so, please send us your photo.

 
Sectional chart

 
Airport distance calculator
Flying to Camp Peary Landing Strip Airport? Find the distance to fly.

From to W94

Sunrise and sunset
Times for 22-Jun-2021
 Local
(UTC-4)
 Zulu
(UTC)
Morning civil twilight05:1609:16
Sunrise05:4709:47
Sunset20:3000:30
Evening civil twilight21:0101:01

Current date and time
Zulu (UTC)  22-Jun-2021 14:19:20
Local (UTC-4)  22-Jun-2021 10:19:20
 
METAR
KJGG 
6nm SW 
221355Z AUTO 25005KT 10SM SCT023 29/23 A2976 RMK AO1
KFAF 
12nm S 
221356Z 21008KT 10SM SCT025 BKN050 BKN170 28/24 A2973 RMK AO2A SLP071 T02830236 $
KPHF 
13nm SE 
221354Z 23017G20KT 10SM SCT024 BKN048 28/23 A2975 RMK AO2 SLP073 T02780228
KFYJ 
14nm NW 
221355Z AUTO 24010KT 10SM BKN080 27/22 A2974 RMK AO1 T02670222
KW75 
20nm NE 
221355Z AUTO 23006KT 10SM BKN085 28/23 A2973 RMK AO1 T02780230
KLFI 
20nm SE 
221356Z 22013KT 10SM BKN015 BKN210 28/25 A2975 RMK AO2A SLP081 T02770249 $
TAF
KFAF 
12nm S 
221000Z 2210/2316 20009KT 9999 FEW015 BKN040 QNH2970INS BECMG 2214/2215 24010G15KT 9000 -SHRA BKN010 OVC025 QNH2970INS TEMPO 2214/2220 24015G25KT 9000 -TSRA BKN010CB OVC020 BECMG 2220/2221 34012KT 8000 -RA BKN009 OVC040 QNH2982INS BECMG 2223/2224 33006KT 9999 NSW SCT015 OVC035 QNH2988INS TX28/2214Z TN17/2308Z
KPHF 
13nm SE 
221120Z 2212/2312 21012G20KT P6SM SCT030 BKN200 FM221500 24012KT 6SM SHRA BKN030 OVC050 FM221800 29013G20KT 4SM SHRA OVC025 TEMPO 2219/2222 2SM +TSRA OVC015CB FM222200 34011KT 4SM SHRA OVC020 FM230000 36007KT P6SM BKN050
KLFI 
20nm SE 
220900Z 2209/2315 22012G18KT 9999 SCT020 SCT060 QNH2970INS BECMG 2210/2211 24015G20KT 9999 BKN025 BKN050 QNH2973INS BECMG 2212/2213 26015G20KT 8000 -SHRA BKN010 OVC030 QNH2975INS BECMG 2213/2214 26015G20KT 6000 SHRA VCTS BKN010CB OVC030 QNH2976INS TEMPO 2215/2218 VRB25G35KT 3200 -TSRA BKN009CB OVC025 BECMG 2217/2218 33012G18KT 9000 -SHRA SCT020 BKN040 BKN130 QNH2981INS BECMG 2301/2302 35012KT 9999 NSW FEW025 BKN040 OVC055 QNH2990INS TX28/2215Z TN19/2221Z
NOTAMs
Click for the latest NOTAMs
NOTAMs are issued by the DoD/FAA and will open in a separate window not controlled by AirNav.

 

 
 

Would you like to see your business listed on this page?

 If your business provides an interesting product or service to pilots, flight crews, aircraft, or users of the Camp Peary Landing Strip Airport, you should consider listing it here.  To start the listing process, click on the button below
 
Add a business
 

Other Pages about Camp Peary Landing Strip Airport

Update a link
 
Copyright © AirNav, LLC. All rights reserved. Privacy Policy  Contact